Tue, 25 Jan 2022 03:18:37 UTC

Information for RPM qdox-0:2.0-3.M9.module_el8.0.0+10+8b25747c.noarch.rpm

ID18359
Nameqdox
Version2.0
Release3.M9.module_el8.0.0+10+8b25747c
Epoch0
Archnoarch
SummaryExtract class/interface/method definitions from sources
DescriptionQDox is a high speed, small footprint parser for extracting class/interface/method definitions from source files complete with JavaDoc @tags. It is designed to be used by active code generators or documentation tools.
Build Time2019-07-15 21:53:13 GMT
Size304711
bd5a4248cedba305d7087958e3ab6a0c
LicenseASL 2.0
Buildrootmodule-javapackages-tools-201801-8000020190628172923-b07bea58-build-7379-1943
Provides
mvn(com.thoughtworks.qdox:qdox) = 2.0.M9
mvn(com.thoughtworks.qdox:qdox:pom:) = 2.0.M9
mvn(qdox:qdox) = 2.0.M9
mvn(qdox:qdox:pom:) = 2.0.M9
osgi(com.thoughtworks.qdox) = 1.6.3
qdox = 0:2.0-3.M9.module_el8.0.0+10+8b25747c
Obsoletes No Obsoletes
Conflicts No Conflicts
Requires
java-headless >= 1:1.5
javapackages-filesystem
rpmlib(CompressedFileNames) <= 3.0.4-1
rpmlib(FileDigests) <= 4.6.0-1
rpmlib(PayloadFilesHavePrefix) <= 4.0-1
rpmlib(PayloadIsXz) <= 5.2-1
Recommends No Recommends
Suggests No Suggests
Supplements No Supplements
Enhances No Enhances
Files
1 through 6 of 6
Name ascending sort Size
/usr/share/doc/qdox0
/usr/share/doc/qdox/LICENSE.txt589
/usr/share/doc/qdox/README.md21068
/usr/share/java/qdox.jar319109
/usr/share/maven-metadata/qdox.xml1903
/usr/share/maven-poms/qdox.pom12999
Component of
Page:
<<< 101 through 150 of 209 >>>
Buildroot descending sort Created State
module-javapackages-tools-201902-8020020200526162847-af5e9d52-build-15774-6957 2020-06-16 03:06:26 expired
module-javapackages-tools-201902-8020020200526162847-af5e9d52-build-15772-6957 2020-06-16 03:05:52 expired
module-javapackages-tools-201902-8020020200526162847-af5e9d52-build-15768-6957 2020-06-16 02:58:21 expired
module-javapackages-tools-201902-8020020200526162847-af5e9d52-build-15767-6957 2020-06-16 02:57:36 expired
module-javapackages-tools-201902-8020020200526162847-af5e9d52-build-15765-6957 2020-06-16 02:56:43 expired
module-javapackages-tools-201902-8020020200526162847-af5e9d52-build-15760-6957 2020-06-16 02:46:37 expired
module-javapackages-tools-201902-8020020200526162847-af5e9d52-build-15758-6957 2020-06-16 02:46:06 expired
module-javapackages-tools-201902-8020020200526162847-af5e9d52-build-15756-6957 2020-06-16 02:45:34 expired
module-javapackages-tools-201902-8020020200526162847-af5e9d52-build-15752-6957 2020-06-16 02:38:08 expired
module-javapackages-tools-201902-8020020200526162847-af5e9d52-build-15751-6957 2020-06-16 02:37:22 expired
module-javapackages-tools-201902-8020020200526162847-af5e9d52-build-15748-6957 2020-06-16 02:36:06 expired
module-javapackages-tools-201902-8020020200526162847-af5e9d52-build-15742-6957 2020-06-16 02:28:35 expired
module-javapackages-tools-201902-8020020200526162847-af5e9d52-build-15741-6957 2020-06-16 02:27:46 expired
module-javapackages-tools-201902-8020020200526162847-af5e9d52-build-15736-6957 2020-06-16 02:25:25 expired
module-javapackages-tools-201902-8020020200526162847-af5e9d52-build-15732-6957 2020-06-16 02:18:20 expired
module-javapackages-tools-201902-8020020200526162847-af5e9d52-build-15731-6957 2020-06-16 02:17:45 expired
module-javapackages-tools-201902-8020020200526162847-af5e9d52-build-15729-6957 2020-06-16 02:16:40 expired
module-javapackages-tools-201902-8020020200526162847-af5e9d52-build-15724-6957 2020-06-16 02:09:02 expired
module-javapackages-tools-201902-8020020200526162847-af5e9d52-build-15723-6957 2020-06-16 02:08:30 expired
module-javapackages-tools-201902-8020020200526162847-af5e9d52-build-15721-6957 2020-06-16 02:06:56 expired
module-javapackages-tools-201902-8020020200526162847-af5e9d52-build-15719-6957 2020-06-16 02:06:19 expired
module-javapackages-tools-201902-8020020200526162847-af5e9d52-build-15716-6957 2020-06-16 01:58:04 expired
module-javapackages-tools-201902-8020020200526162847-af5e9d52-build-15714-6957 2020-06-16 01:56:45 expired
module-javapackages-tools-201902-8020020200526162847-af5e9d52-build-15710-6957 2020-06-16 01:55:26 expired
module-javapackages-tools-201902-8020020200526162847-af5e9d52-build-15706-6957 2020-06-16 01:49:06 expired
module-javapackages-tools-201902-8020020200526162847-af5e9d52-build-15703-6957 2020-06-16 01:47:26 expired
module-javapackages-tools-201902-8020020200526162847-af5e9d52-build-15701-6957 2020-06-16 01:46:26 expired
module-javapackages-tools-201902-8020020200526162847-af5e9d52-build-15699-6957 2020-06-16 01:45:38 expired
module-javapackages-tools-201902-8020020200526162847-af5e9d52-build-15695-6957 2020-06-16 01:35:01 expired
module-javapackages-tools-201902-8020020200526162847-af5e9d52-build-15694-6957 2020-06-16 01:35:00 expired
module-javapackages-tools-201902-8020020200526162847-af5e9d52-build-15692-6957 2020-06-16 01:34:48 expired
module-parfait-0.5-8020020200507003611-d1ef4bed-build-15618-6890 2020-06-13 18:50:24 expired
module-parfait-0.5-8020020200507003611-d1ef4bed-build-15616-6889 2020-06-13 18:30:17 expired
module-parfait-0.5-8020020200507003611-d1ef4bed-build-15614-6888 2020-06-13 18:09:58 expired
module-parfait-0.5-8020020200507003611-d1ef4bed-build-15612-6887 2020-06-13 17:49:56 expired
module-parfait-0.5-8020020200507003611-d1ef4bed-build-15610-6886 2020-06-13 17:29:42 expired
module-parfait-0.5-8020020200507003611-d1ef4bed-build-15608-6885 2020-06-13 17:09:33 expired
module-parfait-0.5-8020020200507003611-d1ef4bed-build-15606-6884 2020-06-13 16:49:15 expired
module-parfait-0.5-8020020200507003611-d1ef4bed-build-15603-6882 2020-06-13 16:28:57 expired
module-pki-deps-10.6-8020020200507012048-6a468ee4-build-15389-6796 2020-06-12 04:23:17 expired
module-pki-deps-10.6-8020020200507012048-6a468ee4-build-15386-6784 2020-06-12 04:03:12 expired
module-pki-deps-10.6-8020020200507012048-6a468ee4-build-15384-6780 2020-06-12 03:43:02 expired
module-pki-deps-10.6-8020020200507012048-6a468ee4-build-15382-6776 2020-06-12 03:02:49 expired
module-pki-deps-10.6-8020020200507012048-6a468ee4-build-15379-6772 2020-06-12 02:42:17 expired
module-pki-deps-10.6-8020020200507012048-6a468ee4-build-15375-6763 2020-06-12 02:11:59 expired
module-pki-deps-10.6-8020020200507012048-6a468ee4-build-15371-6760 2020-06-12 01:51:38 expired
module-pki-deps-10.6-8020020200507012048-6a468ee4-build-15369-6754 2020-06-12 01:31:26 expired
module-pki-deps-10.6-8020020200507012048-6a468ee4-build-15367-6749 2020-06-12 01:11:16 expired
module-pki-deps-10.6-8020020200507012048-6a468ee4-build-15365-6748 2020-06-12 00:51:09 expired
module-pki-deps-10.6-8020020200507012048-6a468ee4-build-15363-6747 2020-06-12 00:31:07 expired